Gas Hills, Wyoming
Current Conditions -  °F | °C
As of 11:53 AM on Friday 28 Nov 2014 (Local Time) from KLND Reporting Station
Clear Clear  
Wind Chill: 61°   Ceiling: Unl
Heat Index: 61°   Visibility: 10mi
Dew Point: 11°   Wind: 14mph
Humidity: 14%   Direction: 290°WNW
Pressure: 29.81"   Gusts: NA
Location:  43.1005°N, 108.934°W
Report Text: KLND 281853Z AUTO 29012KT 10SM CLR 16/M12 A2981 RMK AO2 SLP059 T01611117
Loading
Personal Weather Stations






























Interactive Weather Map New forecast layout! Learn more

10-Day Weather Forecast

Advertisements
Track Severe Weather on mobile